NCAR-RAP Real-Time Weather Data

Output produced by METARs form (16 August 2018  19:24 UTC)
found at http://weather.rap.ucar.edu/surface/
 
RJFT 161200Z 17003KT 150V210 CAVOK 26/26 Q1009
RJFT 161100Z VRB02KT 9999 FEW035 BKN/// 26/26 Q1008
RJFT 161000Z 34003KT 300V010 9999 -SHRA FEW035 SCT060 BKN/// 26/26 Q1008
RJFT 160900Z 36007KT 9999 -SHRA FEW025 SCT035 BKN150 28/24 Q1008
RJFT 160822Z 10004KT 9999 VCSH FEW025 SCT035 BKN/// 30/24 Q1008 RMK 1CU025 4CU035 A2977
RJFT 160800Z VRB04KT 9999 TS VCSH FEW025 SCT030CB BKN/// 29/25 Q1008
RJFT 160700Z 09004KT 050V130 9999 TS VCSH FEW030 SCT035CB BKN/// 32/23 Q1007
RJFT 160600Z 02004KT 360V060 9999 FEW030 SCT035 BKN130 32/23 Q1007
RJFT 160500Z 11003KT 030V200 9999 VCSH FEW030 SCT035 BKN110 32/23 Q1008
RJFT 160400Z VRB02KT 9999 FEW030 SCT035 BKN130 33/22 Q1008
RJFT 160300Z VRB02KT 9999 FEW035 SCT140 BKN160 32/23 Q1008
RJFT 160200Z VRB02KT 9999 FEW025 BKN150 32/24 Q1009
RJFT 160100Z 06005KT 020V090 9999 FEW030 BKN160 BKN/// 30/24 Q1009
RJFT 160000Z VRB02KT 9999 FEW025 SCT140 BKN160 30/23 Q1008
RJFT 152300Z 05004KT 020V090 9999 FEW025 BKN/// 30/24 Q1008
RJFT 152200Z VRB02KT 9999 FEW020 BKN/// 27/26 Q1008
RJFT 152110Z VRB01KT 9999 FEW020 BKN/// 24/24 Q1008 RMK 1ST020 A2977
RJFT 151200Z VRB02KT 9999 FEW015 SCT050 BKN100 26/26 Q1009
RJFT 151100Z VRB02KT 9999 FEW015 SCT050 BKN/// 27/26 Q1008
RJFT 151000Z 21003KT 9999 FEW025 SCT080 BKN/// 28/26 Q1008
RJFT 150900Z 25004KT 200V270 9999 FEW025 SCT050 BKN080 29/28 Q1008
RJFT 150800Z 20003KT 160V240 9999 FEW025 BKN170 BKN/// 31/25 Q1007
RJFT 150700Z 18005KT 120V220 9999 VCSH FEW020 SCT030 BKN040 31/25 Q1007
RJFT 150600Z 20005KT 150V240 9999 VCSH FEW020 FEW025CB SCT120 BKN/// 32/25 Q1008
RJFT 150543Z 17004KT 120V210 9999 TS FEW020 FEW025CB SCT035 BKN050 31/26 Q1008 RMK 1CU020 2CB025 3CU035 5SC050 A2977 FBL TS 20KM NW MOV N
RJFT 150500Z 20005KT 9999 VCSH FEW025 SCT035 BKN045 31/26 Q1008
RJFT 150400Z 24003KT 170V280 9999 FEW025 SCT035 BKN170 31/26 Q1008
RJFT 150311Z VRB02KT 9999 FEW010 SCT070 BKN150 32/28 Q1008 RMK 1ST010 3AC070 6AC150 A2979
RJFT 150300Z VRB02KT 9999 FEW010 SCT070 BKN150 30/26 Q1008
RJFT 150200Z 01003KT 320V090 9999 FEW010 SCT070 BKN140 28/26 Q1009
RJFT 150100Z 27003KT 220V320 9999 FEW010 BKN140 BKN180 27/27 Q1009
RJFT 150000Z 34004KT 290V020 9999 FEW002 SCT045 BKN160 27/26 Q1009
RJFT 142300Z VRB02KT 9999 -SHRA FEW001 SCT030 BKN045 25/25 Q1009
RJFT 142242Z VRB01KT 9999 -SHRA FEW001 BKN045 25/25 Q1009 RMK 2ST001 6CU045 A2980
RJFT 142227Z 14003KT 110V170 9999 SHRA FEW001 BKN045 24/24 Q1009 RMK 2ST001 6CU045 A2980
RJFT 142200Z 18005KT 150V220 9999 -SHRA FEW001 SCT004 BKN045 24/24 Q1009
RJFT 142110Z 19009KT 5000 -SHRA FEW001 SCT003 BKN025 24/24 Q1008 RMK 1ST001 4ST003 7CU025 A2977
RJFT 141200Z 08005KT 040V120 9999 FEW040 BKN/// 29/21 Q1009
RJFT 141100Z 08006KT 9999 FEW040 BKN/// 28/22 Q1009
RJFT 141000Z 13003KT 090V170 9999 FEW030 SCT045 BKN/// 30/21 Q1009
RJFT 140900Z 11007KT 090V170 9999 FEW040 BKN/// 32/20 Q1008
RJFT 140800Z 11013KT 080V170 9999 FEW045 BKN/// 33/19 Q1008